• Join FlightAware (Why Join?)
  • Login
  • US Flag 
05:22AM EST


 

Airport Tracker/Info


-or-


 

Live Flight TrackerFlight Track Log ✈ CSZ9963 ✈ 24-Jul-2014 ✈ ZGSZ / SZX - ZSHC / HGH

Flight Track Log - Related Links

Times and Time Zones

All times are in EDT time to prevent confusion due to time zone crossing. See the CSZ9963 flight status page for this flight to view local times or setup timezone preferences in your user account.

Time Position Orientation Groundspeed Altitude Reporting Facility
EDT Latitude Longitude Course Direction KTS MPH feet Rate Location/Type
12:40AM 23.1784 114.2477 37° Northeast  Level Estimated
12:41AM 23.2682 114.3206 37° Northeast  Level Estimated
12:42AM 23.3578 114.3936 37° Northeast  Level Estimated
12:43AM 23.4475 114.4667 37° Northeast  Level Estimated
12:44AM 23.5371 114.5399 37° Northeast  Level Estimated
12:45AM 23.6267 114.6132 37° Northeast  Level Estimated
12:46AM 23.7162 114.6866 37° Northeast  Level Estimated
12:47AM 23.8057 114.7601 37° Northeast  Level Estimated
12:48AM 23.8952 114.8337 37° Northeast  Level Estimated
12:49AM 23.9846 114.9074 37° Northeast  Level Estimated
12:50AM 24.0740 114.9812 37° Northeast  Level Estimated
12:51AM 24.1634 115.0551 37° Northeast  Level Estimated
12:52AM 24.2527 115.1291 37° Northeast  Level Estimated
12:53AM 24.3420 115.2032 37° Northeast  Level Estimated
12:54AM 24.4313 115.2774 37° Northeast  Level Estimated
12:55AM 24.5205 115.3517 37° Northeast  Level Estimated
12:56AM 24.6097 115.4261 37° Northeast  Level Estimated
12:57AM 24.6988 115.5006 37° Northeast  Level Estimated
12:58AM 24.7880 115.5753 37° Northeast  Level Estimated
12:59AM 24.8770 115.6500 37° Northeast  Level Estimated
01:00AM 24.9661 115.7249 37° Northeast  Level Estimated
01:01AM 25.0551 115.7998 37° Northeast  Level Estimated
01:02AM 25.1440 115.8749 37° Northeast  Level Estimated
01:03AM 25.2330 115.9501 37° Northeast  Level Estimated
01:04AM 25.3218 116.0254 37° Northeast  Level Estimated
01:05AM 25.4107 116.1008 37° Northeast  Level Estimated
01:06AM 25.4995 116.1763 37° Northeast  Level Estimated
01:07AM 25.5883 116.2519 38° Northeast  Level Estimated
01:08AM 25.6770 116.3276 38° Northeast  Level Estimated
01:09AM 25.7657 116.4035 38° Northeast  Level Estimated
01:10AM 25.8544 116.4794 38° Northeast  Level Estimated
01:11AM 25.9430 116.5555 38° Northeast  Level Estimated
01:12AM 26.0315 116.6317 38° Northeast  Level Estimated
01:13AM 26.1201 116.7080 38° Northeast  Level Estimated
01:14AM 26.2086 116.7844 38° Northeast  Level Estimated
01:15AM 26.2970 116.8610 38° Northeast  Level Estimated
01:16AM 26.3855 116.9376 38° Northeast  Level Estimated
01:17AM 26.4738 117.0144 38° Northeast  Level Estimated
01:18AM 26.5622 117.0913 38° Northeast  Level Estimated
01:19AM 26.6504 117.1683 38° Northeast  Level Estimated
01:20AM 26.7387 117.2454 38° Northeast  Level Estimated
01:21AM 26.8269 117.3226 38° Northeast  Level Estimated
01:22AM 26.9151 117.4000 38° Northeast  Level Estimated
01:23AM 27.0032 117.4775 38° Northeast  Level Estimated
01:24AM 27.0913 117.5551 38° Northeast  Level Estimated
01:25AM 27.1793 117.6328 38° Northeast  Level Estimated
01:26AM 27.2673 117.7107 38° Northeast  Level Estimated
01:27AM 27.3553 117.7887 38° Northeast  Level Estimated
01:28AM 27.4432 117.8668 38° Northeast  Level Estimated
01:29AM 27.5310 117.9450 38° Northeast  Level Estimated
01:30AM 27.6189 118.0233 38° Northeast  Level Estimated
01:31AM 27.7066 118.1018 38° Northeast  Level Estimated
01:32AM 27.7944 118.1804 38° Northeast  Level Estimated
01:33AM 27.8820 118.2591 38° Northeast  Level Estimated
01:34AM 27.9697 118.3380 38° Northeast  Level Estimated
01:35AM 28.0573 118.4170 39° Northeast  Level Estimated
01:36AM 28.1448 118.4961 39° Northeast  Level Estimated
01:37AM 28.2323 118.5753 39° Northeast  Level Estimated
01:38AM 28.3198 118.6547 39° Northeast  Level Estimated
01:39AM 28.4072 118.7342 39° Northeast  Level Estimated
01:40AM 28.4946 118.8138 39° Northeast  Level Estimated
01:41AM 28.5819 118.8936 39° Northeast  Level Estimated
01:42AM 28.6692 118.9735 39° Northeast  Level Estimated
01:43AM 28.7564 119.0535 39° Northeast  Level Estimated
01:44AM 28.8436 119.1337 39° Northeast  Level Estimated
01:45AM 28.9307 119.2140 39° Northeast  Level Estimated
01:46AM 29.0178 119.2944 39° Northeast  Level Estimated
01:47AM 29.1049 119.3750 39° Northeast  Level Estimated
01:48AM 29.1919 119.4557 39° Northeast  Level Estimated
01:49AM 29.2788 119.5366 39° Northeast  Level Estimated
01:50AM 29.3657 119.6175 39° Northeast  Level Estimated
01:51AM 29.4525 119.6986 39° Northeast  Level Estimated
01:52AM 29.5393 119.7799 39° Northeast  Level Estimated
01:53AM 29.6261 119.8613 39° Northeast  Level Estimated
01:54AM 29.7128 119.9428 39° Northeast  Level Estimated
01:55AM 29.7994 120.0245 39° Northeast  Level Estimated
01:56AM 29.8860 120.1064 39° Northeast  Level Estimated
01:57AM 29.9726 120.1883 39° Northeast  Level Estimated
01:58AM 30.0591 120.2704 39° Northeast  Level Estimated
01:59AM 30.1455 120.3527 39° Northeast  Level Estimated
02:00AM 30.2283 120.4317 39° Northeast  Level Estimated
02:01AM 30.2283 120.4317 North  Level Estimated
02:02AM 30.2283 120.4317 North  Level Estimated
02:03AM 30.2283 120.4317 North  Level Estimated
02:04AM 30.2283 120.4317 North  Level Estimated
02:05AM 30.2283 120.4317 North  Level Estimated
02:06AM 30.2283 120.4317 North  Level Estimated
02:07AM 30.2283 120.4317 North  Level Estimated
02:08AM 30.2283 120.4317 North  Level Estimated
02:09AM 30.2283 120.4317 North  Level Estimated
02:10AM 30.2283 120.4317 North  Level Estimated
02:11AM 30.2283 120.4317 North  Level Estimated
02:12AM 30.2283 120.4317 North  Level Estimated
02:13AM 30.2283 120.4317 North  Level Estimated
02:14AM 30.2283 120.4317 North  Level Estimated
02:15AM 30.2283 120.4317 North  Level Estimated
02:16AM 30.2283 120.4317 North  Level Estimated